Time;durP1;ratioP1;P1;durP2;ratioP2;P2;SDS_P1;SDS_P2;PMS_P1;PMS_P2;Temp;Humidity;BMP_temperature;BMP_pressure;BME280_temperature;BME280_humidity;BME280_pressure;Samples;Min_cycle;Max_cycle;Signal;HPM_P1;HPM_P2
2023/07/05 00:01:22;;;;;;;10.75;6.78;;;;;;;-148.88;100.00;-17125.47;5024637;28;20117;-86
2023/07/05 00:03:48;;;;;;;13.73;6.63;;;;;;;-148.88;100.00;-17125.47;5024080;28;20021;-86
2023/07/05 00:06:13;;;;;;;10.05;7.00;;;;;;;-148.88;100.00;-17125.47;5024882;28;20028;-84
2023/07/05 00:08:40;;;;;;;11.82;6.78;;;;;;;-148.88;100.00;-17125.47;5024480;28;20114;-86
2023/07/05 00:11:07;;;;;;;13.27;6.88;;;;;;;-148.88;100.00;-17125.47;5024980;28;20112;-87
2023/07/05 00:13:33;;;;;;;12.70;6.45;;;;;;;-148.88;100.00;-17125.47;5025341;28;20029;-87
2023/07/05 00:15:59;;;;;;;11.60;6.53;;;;;;;-148.88;100.00;-17125.47;5025543;28;20029;-86
2023/07/05 00:18:25;;;;;;;12.85;6.40;;;;;;;-148.88;100.00;-17125.47;5041743;28;20089;-86
2023/07/05 00:20:50;;;;;;;13.43;6.80;;;;;;;-148.88;100.00;-17125.47;5024262;28;20065;-86
2023/07/05 00:23:16;;;;;;;9.73;6.57;;;;;;;-148.88;100.00;-17125.47;5024180;28;20022;-86
2023/07/05 00:25:41;;;;;;;11.68;6.15;;;;;;;-148.88;100.00;-17125.47;5042409;28;20037;-86
2023/07/05 00:28:06;;;;;;;11.63;5.93;;;;;;;-148.88;100.00;-17125.47;5025983;28;20074;-86
2023/07/05 00:30:32;;;;;;;11.77;6.13;;;;;;;-148.88;100.00;-17125.47;5026010;28;20057;-86
2023/07/05 00:32:57;;;;;;;13.15;6.82;;;;;;;-148.88;100.00;-17125.47;5025574;28;20028;-86
2023/07/05 00:35:22;;;;;;;8.95;5.85;;;;;;;-148.88;100.00;-17125.47;5020931;28;20112;-86
2023/07/05 00:37:48;;;;;;;12.18;6.47;;;;;;;-148.88;100.00;-17125.47;5038758;28;20365;-86
2023/07/05 00:40:13;;;;;;;12.27;6.20;;;;;;;-148.88;100.00;-17125.47;5039222;28;20026;-85
2023/07/05 00:42:39;;;;;;;11.98;5.75;;;;;;;-148.88;100.00;-17125.47;5021799;28;20080;-86
2023/07/05 00:45:10;;;;;;;10.38;6.20;;;;;;;-148.88;100.00;-17125.47;5039123;28;20025;-86
2023/07/05 00:47:41;;;;;;;11.18;5.80;;;;;;;-148.88;100.00;-17125.47;5021753;28;20048;-86
2023/07/05 00:50:24;;;;;;;8.75;5.80;;;;;;;-148.88;100.00;-17125.47;5039441;28;20435;-85
2023/07/05 00:52:51;;;;;;;13.32;5.40;;;;;;;-148.88;100.00;-17125.47;5021291;28;20510;-86
2023/07/05 00:55:18;;;;;;;10.93;6.22;;;;;;;-148.88;99.02;-17125.47;5019552;28;20064;-85
2023/07/05 00:57:44;;;;;;;11.45;5.90;;;;;;;-148.88;99.40;-17125.47;5020647;28;20021;-86
2023/07/05 01:00:15;;;;;;;9.85;6.13;;;;;;;-148.88;98.64;-17125.47;5038327;28;20033;-86
2023/07/05 01:02:45;;;;;;;9.45;5.68;;;;;;;-148.88;98.95;-17125.47;5021060;28;20120;-85
2023/07/05 01:05:11;;;;;;;14.13;6.15;;;;;;;-148.88;99.15;-17125.47;5038439;28;20033;-86
2023/07/05 01:07:37;;;;;;;9.43;5.97;;;;;;;-148.88;97.93;-17125.47;5020745;28;20030;-86
2023/07/05 01:10:07;;;;;;;8.68;5.90;;;;;;;-148.88;98.04;-17125.47;5021606;28;20068;-85
2023/07/05 01:13:15;;;;;;;9.75;6.35;;;;;;;-148.88;98.94;-17125.47;5020935;28;20045;-86
2023/07/05 01:16:08;;;;;;;11.45;6.00;;;;;;;-148.88;100.00;-17125.47;5039478;28;20025;-86
2023/07/05 01:18:46;;;;;;;9.88;6.00;;;;;;;-148.88;100.00;-17125.47;5020629;28;20112;-85
2023/07/05 01:21:24;;;;;;;11.05;6.65;;;;;;;-148.88;100.00;-17125.47;5040766;28;20083;-85
2023/07/05 01:24:09;;;;;;;12.68;6.78;;;;;;;-148.88;100.00;-17125.47;5022028;28;20025;-85
2023/07/05 01:27:22;;;;;;;10.10;6.90;;;;;;;-148.88;100.00;-17125.47;5022105;28;20032;-85
2023/07/05 01:30:10;;;;;;;12.82;6.80;;;;;;;-148.88;100.00;-17125.47;5020740;28;20022;-85
2023/07/05 01:33:11;;;;;;;10.55;6.90;;;;;;;-148.88;100.00;-17125.47;5019810;28;20021;-84
2023/07/05 01:35:44;;;;;;;11.38;6.63;;;;;;;-148.88;100.00;-17125.47;4988888;28;20148;-85
2023/07/05 01:38:09;;;;;;;12.57;7.13;;;;;;;-148.88;100.00;-17125.47;5037274;28;20500;-84
2023/07/05 01:40:35;;;;;;;12.10;7.32;;;;;;;-148.88;100.00;-17125.47;5020363;28;20025;-85
2023/07/05 01:43:10;;;;;;;11.38;7.32;;;;;;;-148.88;100.00;-17125.47;5020140;28;20540;-85
2023/07/05 01:46:01;;;;;;;12.20;7.05;;;;;;;-148.88;100.00;-17125.47;5020548;28;20033;-85
2023/07/05 01:48:40;;;;;;;10.88;6.63;;;;;;;-148.88;100.00;-17125.47;5021212;28;20030;-85
2023/07/05 01:51:16;;;;;;;16.23;7.47;;;;;;;-148.88;100.00;-17125.47;5038703;28;20059;-85
2023/07/05 01:54:06;;;;;;;11.32;7.07;;;;;;;-148.88;100.00;-17125.47;5038712;28;20033;-84
2023/07/05 01:56:41;;;;;;;10.75;7.13;;;;;;;-148.88;100.00;-17125.47;5038575;28;20021;-85
2023/07/05 01:59:09;;;;;;;12.25;7.70;;;;;;;-148.88;100.00;-17125.47;5038340;28;20021;-85
2023/07/05 02:01:36;;;;;;;14.43;7.68;;;;;;;-148.88;100.00;-17125.47;5019972;28;20025;-85
2023/07/05 02:04:06;;;;;;;12.02;8.00;;;;;;;-148.88;100.00;-17125.47;5019425;28;20079;-85
2023/07/05 02:06:33;;;;;;;12.38;7.70;;;;;;;-148.88;100.00;-17125.47;5037860;28;20026;-86
2023/07/05 02:08:59;;;;;;;12.70;8.55;;;;;;;-148.88;100.00;-17125.47;5017682;28;20471;-84
2023/07/05 02:11:24;;;;;;;13.10;8.73;;;;;;;-148.88;100.00;-17125.47;5018644;28;20025;-84
2023/07/05 02:13:49;;;;;;;11.48;8.68;;;;;;;-148.88;100.00;-17125.47;5019062;28;20456;-84
2023/07/05 02:16:15;;;;;;;11.38;8.15;;;;;;;-148.88;100.00;-17125.47;5019667;28;20376;-85
2023/07/05 02:18:40;;;;;;;13.05;9.15;;;;;;;-148.88;100.00;-17125.47;5037644;28;20047;-85
2023/07/05 02:21:10;;;;;;;12.55;8.68;;;;;;;-148.88;100.00;-17125.47;5037472;28;20032;-85
2023/07/05 02:23:37;;;;;;;14.00;9.05;;;;;;;-148.88;100.00;-17125.47;5019329;28;20032;-85
2023/07/05 02:26:05;;;;;;;14.23;9.23;;;;;;;-148.88;100.00;-17125.47;5037614;28;20033;-86
2023/07/05 02:28:33;;;;;;;13.57;8.77;;;;;;;-148.88;100.00;-17125.47;5037352;28;20018;-85
2023/07/05 02:31:03;;;;;;;11.00;8.20;;;;;;;-148.88;100.00;-17125.47;5037719;28;20104;-85
2023/07/05 02:33:29;;;;;;;13.15;8.80;;;;;;;-148.88;100.00;-17125.47;5019471;28;20029;-85
2023/07/05 02:35:54;;;;;;;14.00;8.85;;;;;;;-148.88;100.00;-17125.47;5019726;28;20028;-85
2023/07/05 02:38:20;;;;;;;14.57;8.77;;;;;;;-148.88;100.00;-17125.47;5039012;28;20373;-85
2023/07/05 02:40:48;;;;;;;12.82;8.85;;;;;;;-148.88;100.00;-17125.47;5021103;28;20468;-86
2023/07/05 02:43:15;;;;;;;10.90;8.00;;;;;;;-148.88;100.00;-17125.47;5021325;28;20024;-85
2023/07/05 02:45:40;;;;;;;13.13;8.70;;;;;;;-148.88;100.00;-17125.47;5018695;28;20021;-84
2023/07/05 02:48:06;;;;;;;14.80;8.95;;;;;;;-148.88;100.00;-17125.47;5019956;28;20112;-84
2023/07/05 02:50:32;;;;;;;13.82;9.07;;;;;;;-148.88;100.00;-17125.47;5022650;28;20458;-83
2023/07/05 02:52:57;;;;;;;15.93;10.23;;;;;;;-148.88;100.00;-17125.47;5024611;28;20480;-82
2023/07/05 02:55:23;;;;;;;15.82;10.18;;;;;;;-148.88;100.00;-17125.47;5048203;28;20093;-83
2023/07/05 02:57:48;;;;;;;16.45;10.02;;;;;;;-148.88;100.00;-17125.47;5046813;28;20021;-83
2023/07/05 03:00:14;;;;;;;14.25;10.10;;;;;;;-148.88;100.00;-17125.47;5028885;28;20033;-81
2023/07/05 03:02:39;;;;;;;13.63;9.70;;;;;;;-148.88;100.00;-17125.47;5024441;28;20092;-82
2023/07/05 03:05:09;;;;;;;15.43;9.80;;;;;;;-148.88;100.00;-17125.47;5024666;28;20025;-82
2023/07/05 03:07:34;;;;;;;14.40;10.15;;;;;;;-148.88;100.00;-17125.47;5024984;28;20021;-80
2023/07/05 03:09:59;;;;;;;15.38;9.68;;;;;;;-148.88;100.00;-17125.47;5024520;28;20087;-82
2023/07/05 03:12:25;;;;;;;15.85;9.52;;;;;;;-148.88;100.00;-17125.47;5042276;28;20085;-82
2023/07/05 03:14:52;;;;;;;15.10;10.45;;;;;;;-148.88;100.00;-17125.47;5024100;28;20427;-82
2023/07/05 03:17:17;;;;;;;13.88;10.70;;;;;;;-148.88;100.00;-17125.47;5041263;28;20053;-83
2023/07/05 03:19:43;;;;;;;16.13;10.52;;;;;;;-148.88;100.00;-17125.47;5041379;28;20036;-83
2023/07/05 03:22:10;;;;;;;16.55;10.90;;;;;;;-148.88;100.00;-17125.47;5022714;28;20116;-82
2023/07/05 03:24:36;;;;;;;15.30;10.48;;;;;;;-148.88;100.00;-17125.47;5041654;28;20032;-83
2023/07/05 03:27:01;;;;;;;15.20;11.05;;;;;;;-148.88;100.00;-17125.47;5040687;28;20034;-83
2023/07/05 03:29:26;;;;;;;18.40;11.52;;;;;;;-148.88;100.00;-17125.47;5022465;28;20055;-82
2023/07/05 03:31:52;;;;;;;19.05;11.70;;;;;;;-148.88;100.00;-17125.47;5039506;28;20368;-84
2023/07/05 03:34:17;;;;;;;15.50;10.88;;;;;;;-148.88;100.00;-17125.47;5021316;28;20028;-83
2023/07/05 03:36:46;;;;;;;16.55;11.02;;;;;;;-148.88;100.00;-17125.47;5020655;28;20057;-84
2023/07/05 03:39:14;;;;;;;13.32;10.75;;;;;;;-148.88;100.00;-17125.47;5019051;28;20079;-84
2023/07/05 03:41:40;;;;;;;14.85;10.85;;;;;;;-148.88;100.00;-17125.47;5019881;28;20386;-84
2023/07/05 03:44:05;;;;;;;16.90;11.35;;;;;;;-148.88;100.00;-17125.47;5038430;28;20071;-83
2023/07/05 03:46:30;;;;;;;15.20;11.15;;;;;;;-148.88;100.00;-17125.47;5021773;28;20487;-82
2023/07/05 03:48:56;;;;;;;15.85;11.57;;;;;;;-148.88;100.00;-17125.47;5038337;28;20036;-83
2023/07/05 03:51:23;;;;;;;17.13;11.90;;;;;;;-148.88;100.00;-17125.47;5017070;28;20436;-84
2023/07/05 03:53:58;;;;;;;17.95;12.20;;;;;;;-148.88;100.00;-17125.47;5016465;28;20554;-82
2023/07/05 03:56:25;;;;;;;16.85;12.00;;;;;;;-148.88;100.00;-17125.47;5017383;28;20029;-83
2023/07/05 03:59:03;;;;;;;14.10;11.15;;;;;;;-148.88;100.00;-17125.47;5017431;28;20025;-84
2023/07/05 04:01:30;;;;;;;14.00;11.48;;;;;;;-148.88;100.00;-17125.47;5016309;28;20033;-83
2023/07/05 04:03:57;;;;;;;16.50;11.00;;;;;;;-148.88;100.00;-17125.47;5017516;28;20021;-81
2023/07/05 04:06:25;;;;;;;17.33;11.35;;;;;;;-148.88;100.00;-17125.47;5018673;28;20021;-82
2023/07/05 04:09:03;;;;;;;14.80;11.25;;;;;;;-148.88;100.00;-17125.47;5037118;28;20543;-83
2023/07/05 04:11:29;;;;;;;15.82;10.90;;;;;;;-148.88;100.00;-17125.47;5019579;28;20067;-82
2023/07/05 04:13:55;;;;;;;16.77;11.07;;;;;;;-148.88;100.00;-17125.47;5023173;28;20400;-82
2023/07/05 04:16:24;;;;;;;18.50;11.68;;;;;;;-148.88;100.00;-17125.47;5040964;28;20421;-85
2023/07/05 04:18:52;;;;;;;17.25;11.60;;;;;;;-148.88;100.00;-17125.47;5020633;28;20026;-84
2023/07/05 04:21:18;;;;;;;16.23;11.13;;;;;;;-148.88;100.00;-17125.47;5019947;28;20080;-86
2023/07/05 04:23:43;;;;;;;16.63;10.85;;;;;;;-148.88;100.00;-17125.47;5019757;28;20476;-85
2023/07/05 04:26:16;;;;;;;14.57;11.73;;;;;;;-148.88;100.00;-17125.47;5023974;28;20114;-84
2023/07/05 04:28:42;;;;;;;18.30;11.50;;;;;;;-148.88;100.00;-17125.47;5043660;28;20489;-85
2023/07/05 04:31:17;;;;;;;16.13;11.10;;;;;;;-148.88;100.00;-17125.47;5025508;28;20041;-84
2023/07/05 04:33:42;;;;;;;16.77;12.13;;;;;;;-148.88;100.00;-17125.47;5041065;28;20033;-85
2023/07/05 04:36:08;;;;;;;17.90;11.38;;;;;;;-148.88;100.00;-17125.47;5023309;28;20108;-85
2023/07/05 04:38:33;;;;;;;16.00;10.85;;;;;;;-148.88;100.00;-17125.47;5021790;28;20107;-84
2023/07/05 04:41:01;;;;;;;13.25;9.95;;;;;;;-148.88;100.00;-17125.47;5021566;28;20025;-82
2023/07/05 04:43:27;;;;;;;12.57;9.88;;;;;;;-148.88;100.00;-17125.47;5041446;28;20480;-84
2023/07/05 04:45:58;;;;;;;11.30;8.75;;;;;;;-148.88;100.00;-17125.47;5041172;28;20029;-84
2023/07/05 04:48:26;;;;;;;14.57;9.32;;;;;;;-148.88;100.00;-17125.47;5023961;28;20514;-84
2023/07/05 04:50:52;;;;;;;13.10;8.70;;;;;;;-148.88;100.00;-17125.47;5041508;28;20049;-85
2023/07/05 04:53:22;;;;;;;11.25;8.32;;;;;;;-148.88;100.00;-17125.47;5023706;28;20025;-85
2023/07/05 04:55:56;;;;;;;10.50;8.07;;;;;;;-148.88;100.00;-17125.47;5037514;28;20021;-86
2023/07/05 04:58:23;;;;;;;11.25;8.10;;;;;;;-148.88;100.00;-17125.47;5020221;28;20025;-85
2023/07/05 05:00:49;;;;;;;11.70;8.48;;;;;;;-148.88;100.00;-17125.47;5019874;28;20025;-84
2023/07/05 05:03:22;;;;;;;13.23;7.57;;;;;;;-148.88;100.00;-17125.47;5019934;28;20488;-85
2023/07/05 05:05:52;;;;;;;9.05;6.57;;;;;;;-148.88;100.00;-17125.47;5019736;28;20125;-86
2023/07/05 05:08:19;;;;;;;8.50;6.22;;;;;;;-148.88;100.00;-17125.47;5020139;28;20032;-86
2023/07/05 05:10:44;;;;;;;9.30;6.65;;;;;;;-148.88;100.00;-17125.47;5023319;28;20036;-85
2023/07/05 05:13:10;;;;;;;10.15;6.07;;;;;;;-148.88;100.00;-17125.47;5040095;28;20021;-85
2023/07/05 05:15:39;;;;;;;9.85;5.95;;;;;;;-148.88;100.00;-17125.47;5038370;28;20112;-84
2023/07/05 05:18:08;;;;;;;7.95;5.95;;;;;;;-148.88;100.00;-17125.47;5020016;28;20028;-83
2023/07/05 05:20:37;;;;;;;6.95;5.68;;;;;;;-148.88;100.00;-17125.47;5019892;28;20029;-86
2023/07/05 05:23:02;;;;;;;9.50;5.88;;;;;;;-148.88;100.00;-17125.47;5019213;28;20025;-86
2023/07/05 05:25:28;;;;;;;8.25;5.15;;;;;;;-148.88;100.00;-17125.47;5019847;28;20026;-85
2023/07/05 05:27:53;;;;;;;7.78;4.97;;;;;;;-148.88;100.00;-17125.47;5020533;28;20036;-86
2023/07/05 05:30:35;;;;;;;12.88;5.15;;;;;;;-148.88;100.00;-17125.47;5020219;28;20091;-86
2023/07/05 05:33:02;;;;;;;6.70;4.70;;;;;;;-148.88;100.00;-17125.47;5019308;28;20033;-85
2023/07/05 05:35:32;;;;;;;5.88;4.22;;;;;;;-148.88;100.00;-17125.47;5039801;28;20021;-86
2023/07/05 05:37:58;;;;;;;5.93;3.92;;;;;;;-148.88;100.00;-17125.47;5020147;28;20052;-86
2023/07/05 05:40:23;;;;;;;6.00;4.28;;;;;;;-148.88;100.00;-17125.47;5019758;28;20025;-85
2023/07/05 05:42:49;;;;;;;5.38;3.92;;;;;;;-148.88;100.00;-17125.47;5018669;28;20346;-85
2023/07/05 05:45:15;;;;;;;6.82;4.13;;;;;;;-148.88;100.00;-17125.47;5037286;28;20371;-85
2023/07/05 05:47:49;;;;;;;6.50;4.10;;;;;;;-148.88;100.00;-17125.47;5037805;28;20093;-84
2023/07/05 05:50:14;;;;;;;5.10;4.60;;;;;;;-148.88;100.00;-17125.47;5020790;28;20036;-86
2023/07/05 05:52:46;;;;;;;4.70;4.15;;;;;;;-148.88;100.00;-17125.47;5019733;28;20029;-86
2023/07/05 05:55:41;;;;;;;;;;;;;;;;;;;;;
2023/07/05 05:58:13;;;;;;;5.68;3.90;;;;;;;-148.88;100.00;-17125.47;5036329;28;20035;-85
2023/07/05 06:01:22;;;;;;;4.75;4.25;;;;;;;-148.88;100.00;-17125.47;5036820;28;20025;-85
2023/07/05 06:03:54;;;;;;;7.40;5.38;;;;;;;-148.88;100.00;-17125.47;5011458;28;20041;-84
2023/07/05 06:06:30;;;;;;;4.97;4.07;;;;;;;-148.88;100.00;-17125.47;5018191;28;20025;-83
2023/07/05 06:09:11;;;;;;;6.72;3.60;;;;;;;-148.88;100.00;-17125.47;5019596;28;20025;-85
2023/07/05 06:11:47;;;;;;;3.65;2.85;;;;;;;-148.88;100.00;-17125.47;5036406;28;20029;-85
2023/07/05 06:14:21;;;;;;;4.35;2.85;;;;;;;-148.88;100.00;-17125.47;5021927;28;20025;-85
2023/07/05 06:16:52;;;;;;;5.82;3.22;;;;;;;-148.88;100.00;-17125.47;5039165;28;20012;-84
2023/07/05 06:19:33;;;;;;;5.03;3.10;;;;;;;-148.88;100.00;-17125.47;5038784;28;20018;-86
2023/07/05 06:22:04;;;;;;;6.40;3.03;;;;;;;-148.88;100.00;-17125.47;5028644;28;20040;-85
2023/07/05 06:24:42;;;;;;;5.00;2.63;;;;;;;-148.88;100.00;-17125.47;5022587;28;20548;-85
2023/07/05 06:27:07;;;;;;;4.78;3.03;;;;;;;-148.88;100.00;-17125.47;5018649;28;20025;-84
2023/07/05 06:29:51;;;;;;;;;;;;;;;;;;;;;
2023/07/05 06:32:27;;;;;;;7.57;3.10;;;;;;;-148.88;100.00;-17125.47;5034338;28;20021;-85
2023/07/05 06:35:03;;;;;;;6.07;3.20;;;;;;;-148.88;100.00;-17125.47;5017822;28;20112;-84
2023/07/05 06:37:36;;;;;;;5.20;3.20;;;;;;;-148.88;100.00;-17125.47;5017705;28;20037;-85
2023/07/05 06:40:12;;;;;;;;;;;;;;;-148.88;100.00;-17125.47;5017640;28;20029;-85
2023/07/05 06:42:43;;;;;;;4.47;3.20;;;;;;;-148.88;100.00;-17125.47;5017649;28;19947;-86
2023/07/05 06:45:29;;;;;;;6.10;3.00;;;;;;;-148.88;100.00;-17125.47;5016795;28;20408;-86
2023/07/05 06:47:55;;;;;;;6.22;2.78;;;;;;;-148.88;100.00;-17125.47;5017948;28;20017;-85
2023/07/05 06:50:39;;;;;;;;;;;;;;;;;;;;;
2023/07/05 06:53:15;;;;;;;;;;;;;;;;;;;;;
2023/07/05 06:55:51;;;;;;;5.13;2.92;;;;;;;-148.88;100.00;-17125.47;5035131;28;20021;-86
2023/07/05 06:58:26;;;;;;;4.50;2.90;;;;;;;-148.88;100.00;-17125.47;5034514;28;20029;-84
2023/07/05 07:01:16;;;;;;;;;;;;;;;;;;;;;
2023/07/05 07:03:45;;;;;;;6.93;2.97;;;;;;;-148.88;100.00;-17125.47;5035312;28;20028;-85
2023/07/05 07:06:24;;;;;;;5.90;3.05;;;;;;;-148.88;100.00;-17125.47;5017034;28;20033;-85
2023/07/05 07:09:12;;;;;;;4.57;2.70;;;;;;;-148.88;99.86;-17125.47;5017588;28;20384;-85
2023/07/05 07:11:54;;;;;;;5.47;2.78;;;;;;;-148.88;97.39;-17125.47;5017858;28;20025;-85
2023/07/05 07:17:18;;;;;;;4.88;2.40;;;;;;;-148.88;95.81;-17125.47;5023655;28;20029;-87
2023/07/05 07:19:43;;;;;;;4.50;2.47;;;;;;;-148.88;95.13;-17125.47;5016633;28;20025;-87
2023/07/05 07:22:15;;;;;;;4.93;2.67;;;;;;;-148.88;95.44;-17125.47;5034084;28;20091;-88
2023/07/05 07:24:42;;;;;;;5.40;2.90;;;;;;;-148.88;90.73;-17125.47;5016827;28;20116;-86
2023/07/05 07:27:20;;;;;;;5.15;2.60;;;;;;;-148.88;89.66;-17125.47;5017564;28;20032;-85
2023/07/05 07:29:45;;;;;;;4.60;2.80;;;;;;;-148.88;91.07;-17125.47;5018912;28;20034;-87
2023/07/05 07:32:10;;;;;;;5.22;2.40;;;;;;;-148.88;91.74;-17125.47;5017096;28;20025;-87
2023/07/05 07:34:43;;;;;;;3.78;2.40;;;;;;;-148.88;93.11;-17125.47;5035949;28;20057;-87
2023/07/05 07:37:14;;;;;;;8.20;3.40;;;;;;;-148.88;94.36;-17125.47;5034848;28;20534;-85
2023/07/05 07:39:40;;;;;;;5.88;2.80;;;;;;;-148.88;92.83;-17125.47;5034964;28;20033;-86
2023/07/05 07:42:06;;;;;;;7.22;3.40;;;;;;;-148.88;95.64;-17125.47;5017012;28;20044;-84
2023/07/05 07:44:58;;;;;;;6.60;3.10;;;;;;;-148.88;94.96;-17125.47;5036398;28;20022;-85
2023/07/05 07:47:24;;;;;;;5.45;2.65;;;;;;;-148.88;94.33;-17125.47;5021115;28;20080;-85
2023/07/05 07:49:50;;;;;;;4.15;2.78;;;;;;;-148.88;94.69;-17125.47;5021144;28;20018;-86
2023/07/05 07:52:18;;;;;;;5.35;2.67;;;;;;;-148.88;90.70;-17125.47;5039124;28;20380;-86
2023/07/05 07:54:46;;;;;;;4.10;2.50;;;;;;;-148.88;88.21;-17125.47;5039473;28;20499;-85
2023/07/05 07:57:11;;;;;;;5.40;2.50;;;;;;;-148.88;85.38;-17125.47;5038441;28;20018;-85
2023/07/05 07:59:54;;;;;;;5.22;2.67;;;;;;;-148.88;87.18;-17125.47;5021284;28;20036;-85
2023/07/05 08:02:19;;;;;;;4.90;2.40;;;;;;;-148.88;85.95;-17125.47;5020595;28;20500;-84
2023/07/05 08:05:09;;;;;;;4.22;2.58;;;;;;;-148.88;82.71;-17125.47;5036800;28;20024;-86
2023/07/05 08:07:40;;;;;;;4.63;1.98;;;;;;;-148.88;77.53;-17125.47;5020531;28;20555;-85
2023/07/05 08:10:06;;;;;;;5.35;2.38;;;;;;;-148.88;78.43;-17125.47;5020283;28;20051;-86
2023/07/05 08:12:32;;;;;;;3.72;2.10;;;;;;;-148.88;80.12;-17125.47;5020485;28;20465;-86
2023/07/05 08:14:57;;;;;;;6.40;2.47;;;;;;;-148.88;81.01;-17125.47;5038087;28;20022;-82
2023/07/05 08:17:22;;;;;;;5.38;2.05;;;;;;;-148.88;78.73;-17125.47;5020932;28;20033;-85
2023/07/05 08:19:49;;;;;;;3.55;2.08;;;;;;;-148.88;78.11;-17125.47;5019859;28;20026;-85
2023/07/05 08:22:20;;;;;;;5.20;2.53;;;;;;;-148.88;79.28;-17125.47;5020137;28;20029;-84
2023/07/05 08:24:45;;;;;;;6.97;2.25;;;;;;;-148.88;80.19;-17125.47;5024412;28;20080;-84
2023/07/05 08:27:24;;;;;;;5.47;2.08;;;;;;;-148.88;79.01;-17125.47;5037412;28;20076;-85
2023/07/05 08:29:52;;;;;;;5.25;2.42;;;;;;;-148.88;79.29;-17125.47;5035359;28;20025;-84
2023/07/05 08:32:19;;;;;;;4.55;2.40;;;;;;;-148.88;80.93;-17125.47;5036192;28;20025;-85
2023/07/05 08:34:45;;;;;;;5.15;2.40;;;;;;;-148.88;80.10;-17125.47;5035963;28;20388;-84
2023/07/05 08:37:22;;;;;;;3.70;2.35;;;;;;;-148.88;80.12;-17125.47;5039578;28;20084;-86
2023/07/05 08:39:54;;;;;;;5.03;2.30;;;;;;;-148.88;82.15;-17125.47;5038536;28;20032;-85
2023/07/05 08:42:32;;;;;;;5.47;2.42;;;;;;;-148.88;83.54;-17125.47;5038743;28;20029;-85
2023/07/05 08:45:20;;;;;;;8.30;2.63;;;;;;;-148.88;79.66;-17125.47;5040433;28;20097;-86
2023/07/05 08:47:54;;;;;;;5.47;2.28;;;;;;;-148.88;79.84;-17125.47;5029054;28;20025;-85
2023/07/05 08:50:41;;;;;;;3.95;2.20;;;;;;;-148.88;77.63;-17125.47;5037458;28;20029;-87
2023/07/05 08:53:31;;;;;;;3.17;1.90;;;;;;;-148.88;77.36;-17125.47;5037151;28;20120;-85
2023/07/05 08:56:13;;;;;;;5.30;1.90;;;;;;;-148.88;77.51;-17125.47;5030578;28;20057;-84
2023/07/05 08:58:57;;;;;;;5.13;2.20;;;;;;;-148.88;78.68;-17125.47;5041370;28;20391;-86
2023/07/05 09:01:31;;;;;;;5.20;1.80;;;;;;;-148.88;76.77;-17125.47;5039318;28;20034;-85
2023/07/05 09:04:32;;;;;;;5.15;1.75;;;;;;;-148.88;75.87;-17125.47;5037062;28;20026;-83
2023/07/05 09:07:09;;;;;;;4.53;1.60;;;;;;;-148.88;75.36;-17125.47;5037219;28;20040;-84
2023/07/05 09:10:14;;;;;;;3.38;1.85;;;;;;;-148.88;76.47;-17125.47;5038982;28;20084;-84
2023/07/05 09:13:22;;;;;;;6.68;2.00;;;;;;;-148.88;77.06;-17125.47;5033766;28;20040;-84
2023/07/05 09:16:22;;;;;;;4.53;1.80;;;;;;;-148.88;77.80;-17125.47;5001837;28;20529;-84
2023/07/05 09:19:06;;;;;;;5.13;1.70;;;;;;;-148.88;76.25;-17125.47;4968262;28;20093;-85
2023/07/05 09:21:40;;;;;;;5.38;2.00;;;;;;;-148.88;77.02;-17125.47;5031405;28;20041;-85
2023/07/05 09:24:39;;;;;;;2.85;1.70;;;;;;;-148.88;74.69;-17125.47;5064204;22;20035;-86
2023/07/05 09:27:29;;;;;;;5.38;1.90;;;;;;;-148.88;76.96;-17125.47;5035334;28;20427;-87
2023/07/05 09:30:19;;;;;;;4.95;1.85;;;;;;;-148.88;76.35;-17125.47;5018795;28;20392;-88
2023/07/05 09:33:12;;;;;;;3.15;1.58;;;;;;;-148.88;77.11;-17125.47;5014829;28;20381;-88
2023/07/05 09:35:45;;;;;;;7.20;1.85;;;;;;;-148.88;73.69;-17125.47;5017287;28;20113;-89
2023/07/05 09:38:31;;;;;;;4.47;1.58;;;;;;;-148.88;72.82;-17125.47;5018704;28;20028;-88
2023/07/05 09:41:31;;;;;;;3.50;1.33;;;;;;;-148.88;72.27;-17125.47;5018788;28;20033;-86
2023/07/05 09:46:31;;;;;;;3.28;1.58;;;;;;;-148.88;73.06;-17125.47;5041630;22;20421;-72
2023/07/05 09:48:57;;;;;;;5.07;1.50;;;;;;;-148.88;73.27;-17125.47;5034436;28;20482;-71
2023/07/05 09:51:22;;;;;;;4.20;1.48;;;;;;;-148.88;72.31;-17125.47;5034360;28;20052;-71
2023/07/05 09:54:00;;;;;;;4.50;1.50;;;;;;;-148.88;74.50;-17125.47;5032303;28;20395;-71
2023/07/05 09:56:29;;;;;;;6.63;1.80;;;;;;;-148.88;73.80;-17125.47;5033872;28;20043;-71
2023/07/05 09:59:07;;;;;;;4.72;1.60;;;;;;;-148.88;75.92;-17125.47;5034241;28;20018;-72
2023/07/05 10:01:36;;;;;;;3.78;1.30;;;;;;;-148.88;77.99;-17125.47;5034484;28;20391;-72
2023/07/05 10:04:05;;;;;;;4.97;1.73;;;;;;;-148.88;78.00;-17125.47;5016376;28;20514;-72
2023/07/05 10:06:31;;;;;;;7.57;1.80;;;;;;;-148.88;78.93;-17125.47;5033898;28;20553;-71
2023/07/05 10:09:02;;;;;;;4.90;1.67;;;;;;;-148.88;81.71;-17125.47;5016487;28;20026;-71
2023/07/05 10:11:33;;;;;;;5.40;1.80;;;;;;;-148.88;82.17;-17125.47;5034046;28;20032;-72
2023/07/05 10:14:10;;;;;;;6.25;1.63;;;;;;;-148.88;79.83;-17125.47;5017113;28;20087;-71
2023/07/05 10:16:51;;;;;;;5.95;1.50;;;;;;;-148.88;79.21;-17125.47;5016153;28;20044;-72
2023/07/05 10:19:25;;;;;;;4.95;1.63;;;;;;;-148.88;76.12;-17125.47;5016213;28;20112;-71
2023/07/05 10:21:55;;;;;;;7.50;1.75;;;;;;;-148.88;76.51;-17125.47;5034065;28;20128;-71
2023/07/05 10:24:21;;;;;;;5.38;1.73;;;;;;;-148.88;77.84;-17125.47;5033787;28;20071;-72
2023/07/05 10:26:51;;;;;;;4.78;1.90;;;;;;;-148.88;75.25;-17125.47;5033991;28;20021;-73
2023/07/05 10:29:29;;;;;;;5.45;1.60;;;;;;;-148.88;74.59;-17125.47;5033626;28;20028;-72
2023/07/05 10:31:58;;;;;;;4.13;1.77;;;;;;;-148.88;71.79;-17125.47;5033643;28;20025;-72
2023/07/05 10:34:24;;;;;;;5.10;1.70;;;;;;;-148.88;75.55;-17125.47;5015944;28;20021;-73
2023/07/05 10:36:50;;;;;;;5.15;1.75;;;;;;;-148.88;74.59;-17125.47;5033575;28;20099;-72
2023/07/05 10:39:26;;;;;;;6.15;2.00;;;;;;;-148.88;71.30;-17125.47;5033525;28;20025;-72
2023/07/05 10:41:56;;;;;;;3.25;1.67;;;;;;;-148.88;75.11;-17125.47;5033797;28;20026;-72
2023/07/05 10:44:34;;;;;;;3.67;1.80;;;;;;;-148.88;74.46;-17125.47;5033644;28;20048;-72
2023/07/05 10:47:02;;;;;;;3.20;1.67;;;;;;;-148.88;73.75;-17125.47;5015538;28;20052;-72
2023/07/05 10:49:30;;;;;;;5.22;1.65;;;;;;;-148.88;75.20;-17125.47;5033272;28;20519;-72
2023/07/05 10:52:01;;;;;;;4.63;1.80;;;;;;;-148.88;73.96;-17125.47;5033296;28;20096;-71
2023/07/05 10:54:45;;;;;;;7.15;1.85;;;;;;;-148.88;73.96;-17125.47;5033230;28;20112;-71
2023/07/05 10:57:31;;;;;;;5.35;1.70;;;;;;;-148.88;72.77;-17125.47;5033360;28;20060;-72
2023/07/05 11:00:18;;;;;;;7.57;2.25;;;;;;;-148.88;75.40;-17125.47;5033342;28;20037;-74
2023/07/05 11:02:46;;;;;;;5.05;2.20;;;;;;;-148.88;74.19;-17125.47;5015222;28;20029;-72
2023/07/05 11:05:19;;;;;;;4.10;2.00;;;;;;;-148.88;73.87;-17125.47;5033079;28;20075;-72
2023/07/05 11:07:48;;;;;;;5.07;1.70;;;;;;;-148.88;73.52;-17125.47;5033060;28;20022;-71
2023/07/05 11:10:14;;;;;;;6.18;1.98;;;;;;;-148.88;73.82;-17125.47;5032948;28;20083;-72
2023/07/05 11:12:41;;;;;;;6.25;2.10;;;;;;;-148.88;75.96;-17125.47;5033135;28;20060;-72
2023/07/05 11:15:15;;;;;;;5.60;2.40;;;;;;;-148.88;72.32;-17125.47;5015298;28;20036;-72
2023/07/05 11:17:42;;;;;;;5.18;1.77;;;;;;;-148.88;73.64;-17125.47;5032847;28;20021;-72
2023/07/05 11:20:39;;;;;;;6.57;1.80;;;;;;;-148.88;72.28;-17125.47;5032310;28;20116;-71
2023/07/05 11:23:11;;;;;;;6.10;2.00;;;;;;;-148.88;71.95;-17125.47;5032832;28;20028;-71
2023/07/05 11:25:56;;;;;;;5.75;1.73;;;;;;;-148.88;72.13;-17125.47;5015497;28;20186;-72
2023/07/05 11:28:38;;;;;;;7.60;2.20;;;;;;;-148.88;69.88;-17125.47;5032996;28;20492;-72
2023/07/05 11:31:06;;;;;;;8.80;2.03;;;;;;;-148.88;69.42;-17125.47;5033026;28;20033;-71
2023/07/05 11:33:31;;;;;;;5.72;1.80;;;;;;;-148.88;69.81;-17125.47;5032772;28;20040;-71
2023/07/05 11:36:00;;;;;;;5.88;2.00;;;;;;;-148.88;70.75;-17125.47;5032826;28;20030;-72